createdAt,value
2019-04-29T00:01:07.070Z,10.60
2019-04-29T00:04:12.390Z,12.10
2019-04-29T00:07:17.772Z,11.07
2019-04-29T00:10:23.473Z,10.27
2019-04-29T00:13:29.068Z,10.70
2019-04-29T00:16:46.426Z,11.57
2019-04-29T00:20:09.521Z,11.37
2019-04-29T00:23:14.862Z,11.70
2019-04-29T00:26:20.101Z,10.30
2019-04-29T00:29:25.550Z,10.17
2019-04-29T00:32:31.088Z,11.93
2019-04-29T00:35:36.732Z,10.97
2019-04-29T00:39:04.000Z,11.43
2019-04-29T00:42:21.741Z,11.60
2019-04-29T00:45:27.026Z,11.13
2019-04-29T00:48:32.307Z,10.90
2019-04-29T00:51:37.571Z,11.60
2019-04-29T00:54:48.467Z,10.83
2019-04-29T00:57:53.788Z,12.03
2019-04-29T01:01:00.884Z,11.10
2019-04-29T01:04:06.206Z,12.10
2019-04-29T01:07:11.699Z,11.97
2019-04-29T01:10:19.350Z,12.27
2019-04-29T01:13:24.680Z,12.57
2019-04-29T01:16:33.287Z,12.30
2019-04-29T01:19:38.732Z,12.87
2019-04-29T01:22:44.046Z,12.13
2019-04-29T01:25:52.630Z,13.00
2019-04-29T01:28:58.207Z,12.33
2019-04-29T01:32:05.218Z,12.67
2019-04-29T01:35:10.558Z,12.70
2019-04-29T01:38:15.832Z,14.10
2019-04-29T01:41:23.246Z,12.60
2019-04-29T01:44:32.234Z,12.97
2019-04-29T01:47:39.182Z,12.83
2019-04-29T01:50:44.500Z,13.43
2019-04-29T01:53:49.790Z,12.07
2019-04-29T01:56:55.143Z,12.33
2019-04-29T02:00:00.362Z,14.03
2019-04-29T02:03:05.750Z,13.10
2019-04-29T02:06:11.023Z,13.10
2019-04-29T02:09:24.129Z,13.13
2019-04-29T02:12:29.451Z,15.20
2019-04-29T02:15:34.724Z,14.30
2019-04-29T02:18:41.730Z,13.80
2019-04-29T02:22:06.135Z,16.20
2019-04-29T02:25:16.410Z,13.63
2019-04-29T02:28:21.791Z,15.60
2019-04-29T02:31:40.180Z,15.70
2019-04-29T02:34:45.631Z,14.23
2019-04-29T02:37:50.986Z,15.07
2019-04-29T02:41:06.826Z,15.43
2019-04-29T02:44:12.987Z,14.23
2019-04-29T02:47:18.352Z,12.37
2019-04-29T02:50:23.713Z,13.10
2019-04-29T02:53:31.318Z,12.60
2019-04-29T02:56:37.037Z,14.20
2019-04-29T02:59:46.121Z,13.13
2019-04-29T03:03:07.380Z,12.97
2019-04-29T03:06:12.917Z,13.70
2019-04-29T03:09:18.233Z,13.87
2019-04-29T03:12:23.502Z,14.33
2019-04-29T03:15:33.979Z,14.90
2019-04-29T03:18:45.282Z,15.17
2019-04-29T03:21:55.823Z,15.97
2019-04-29T03:25:01.237Z,15.37
2019-04-29T03:28:06.832Z,16.53
2019-04-29T03:31:12.137Z,15.70
2019-04-29T03:34:17.411Z,15.67
2019-04-29T03:37:22.685Z,17.00
2019-04-29T03:40:27.963Z,15.87
2019-04-29T03:43:33.288Z,16.70
2019-04-29T03:46:38.626Z,16.90
2019-04-29T03:49:43.919Z,15.33
2019-04-29T03:52:49.214Z,16.23
2019-04-29T03:55:56.579Z,15.80
2019-04-29T03:59:02.903Z,17.23
2019-04-29T04:02:33.196Z,17.00
2019-04-29T04:06:03.508Z,16.60
2019-04-29T04:09:17.449Z,16.53
2019-04-29T04:12:22.685Z,16.53
2019-04-29T04:15:27.979Z,17.50
2019-04-29T04:18:35.376Z,15.83
2019-04-29T04:21:41.996Z,16.23
2019-04-29T04:24:47.482Z,16.63
2019-04-29T04:27:52.789Z,17.10
2019-04-29T04:30:58.170Z,16.87
2019-04-29T04:34:03.443Z,16.60
2019-04-29T04:37:09.744Z,16.00
2019-04-29T04:40:18.011Z,16.80
2019-04-29T04:43:23.305Z,17.40
2019-04-29T04:46:28.599Z,17.83
2019-04-29T04:49:34.084Z,15.93
2019-04-29T04:52:39.361Z,16.70
2019-04-29T04:55:46.256Z,15.40
2019-04-29T04:58:52.012Z,15.57
2019-04-29T05:01:57.278Z,15.90
2019-04-29T05:05:04.534Z,15.20
2019-04-29T05:08:09.823Z,16.57
2019-04-29T05:11:15.150Z,16.07
2019-04-29T05:14:20.431Z,16.30
2019-04-29T05:17:25.755Z,17.57
2019-04-29T05:20:33.434Z,17.40
2019-04-29T05:23:41.498Z,17.67
2019-04-29T05:26:46.610Z,17.17
2019-04-29T05:29:51.874Z,18.10
2019-04-29T05:32:59.584Z,17.00
2019-04-29T05:36:26.295Z,17.80
2019-04-29T05:39:36.660Z,17.17
2019-04-29T05:42:42.009Z,16.80
2019-04-29T05:46:09.406Z,17.03
2019-04-29T05:49:17.610Z,16.40
2019-04-29T05:52:39.570Z,17.63
2019-04-29T05:55:46.896Z,16.50
2019-04-29T05:58:52.309Z,18.53
2019-04-29T06:01:57.736Z,16.43
2019-04-29T06:05:03.153Z,16.87
2019-04-29T06:08:08.456Z,17.27
2019-04-29T06:11:13.827Z,15.90
2019-04-29T06:14:22.060Z,17.27
2019-04-29T06:17:26.218Z,16.37
2019-04-29T06:20:31.671Z,16.60
2019-04-29T06:23:37.990Z,17.97
2019-04-29T06:26:43.833Z,16.27
2019-04-29T06:29:49.498Z,14.27
2019-04-29T06:32:57.304Z,12.30
2019-04-29T06:36:02.608Z,10.13
2019-04-29T06:39:08.219Z,10.00
2019-04-29T06:42:15.441Z,9.90
2019-04-29T06:45:21.808Z,9.50
2019-04-29T06:48:27.235Z,9.87
2019-04-29T06:51:32.525Z,10.33
2019-04-29T06:54:37.850Z,10.67
2019-04-29T06:57:43.186Z,11.80
2019-04-29T07:00:50.901Z,11.20
2019-04-29T07:03:59.419Z,12.10
2019-04-29T07:07:04.089Z,11.03
2019-04-29T07:10:10.059Z,10.70
2019-04-29T07:13:17.866Z,10.10
2019-04-29T07:16:27.306Z,10.40
2019-04-29T07:19:29.390Z,9.60
2019-04-29T07:22:34.750Z,10.10
2019-04-29T07:25:40.098Z,9.27
2019-04-29T07:28:48.674Z,8.63
2019-04-29T07:31:54.098Z,9.30
2019-04-29T07:34:59.434Z,8.20
2019-04-29T07:38:08.545Z,9.07
2019-04-29T07:41:14.304Z,8.47
2019-04-29T07:44:21.056Z,9.07
2019-04-29T07:47:29.431Z,8.63
2019-04-29T07:50:33.369Z,8.80
2019-04-29T07:53:45.063Z,7.90
2019-04-29T07:56:45.616Z,7.40
2019-04-29T07:59:50.873Z,8.40
2019-04-29T08:02:56.185Z,7.37
2019-04-29T08:06:01.932Z,7.93
2019-04-29T08:09:09.747Z,7.67
2019-04-29T08:12:15.851Z,7.70
2019-04-29T08:15:22.863Z,7.90
2019-04-29T08:18:28.226Z,7.20
2019-04-29T08:21:34.515Z,7.33
2019-04-29T08:24:39.811Z,7.47
2019-04-29T08:27:45.086Z,7.90
2019-04-29T08:30:50.378Z,6.53
2019-04-29T08:33:55.740Z,6.40
2019-04-29T08:37:01.266Z,6.40
2019-04-29T08:40:16.031Z,6.30
2019-04-29T08:43:41.804Z,4.40
2019-04-29T08:46:52.900Z,5.20
2019-04-29T08:49:58.304Z,4.00
2019-04-29T08:53:03.945Z,4.90
2019-04-29T08:56:10.322Z,4.20
2019-04-29T08:59:16.534Z,4.60
2019-04-29T09:02:33.858Z,5.50
2019-04-29T09:05:31.964Z,4.60
2019-04-29T09:08:37.502Z,5.00
2019-04-29T09:11:47.696Z,5.57
2019-04-29T09:14:49.887Z,5.40
2019-04-29T09:17:55.161Z,5.17
2019-04-29T09:21:00.511Z,6.00
2019-04-29T09:24:05.936Z,5.07
2019-04-29T09:27:15.523Z,5.13
2019-04-29T09:30:20.973Z,6.20
2019-04-29T09:33:26.295Z,5.60
2019-04-29T09:36:32.686Z,5.00
2019-04-29T09:39:43.422Z,5.40
2019-04-29T09:43:15.656Z,4.97
2019-04-29T09:46:30.111Z,5.20
2019-04-29T09:49:34.110Z,5.27
2019-04-29T09:52:39.398Z,5.87
2019-04-29T09:55:44.675Z,5.90
2019-04-29T09:58:52.010Z,6.03
2019-04-29T10:02:26.262Z,5.93
2019-04-29T10:05:42.975Z,6.00
2019-04-29T10:08:50.601Z,5.83
2019-04-29T10:11:56.038Z,5.30
2019-04-29T10:15:01.357Z,6.20
2019-04-29T10:18:29.783Z,6.40
2019-04-29T10:21:36.881Z,6.73
2019-04-29T10:24:42.088Z,6.13
2019-04-29T10:27:47.388Z,7.63
2019-04-29T10:30:52.686Z,7.60
2019-04-29T10:33:58.085Z,8.33
2019-04-29T10:37:03.384Z,8.00
2019-04-29T10:40:20.868Z,8.93
2019-04-29T10:43:39.691Z,9.90
2019-04-29T10:47:02.511Z,9.20
2019-04-29T10:50:27.044Z,10.77
2019-04-29T10:53:32.319Z,11.00
2019-04-29T10:56:39.450Z,10.67
2019-04-29T10:59:50.165Z,11.53
2019-04-29T11:02:54.253Z,11.10
2019-04-29T11:06:01.782Z,11.40
2019-04-29T11:09:28.592Z,13.07
2019-04-29T11:12:33.958Z,12.37
2019-04-29T11:15:39.357Z,12.80
2019-04-29T11:18:47.743Z,13.33
2019-04-29T11:21:51.920Z,12.57
2019-04-29T11:25:30.229Z,12.80
2019-04-29T11:28:38.324Z,13.10
2019-04-29T11:31:43.910Z,14.00
2019-04-29T11:35:24.546Z,13.10
2019-04-29T11:38:33.447Z,15.23
2019-04-29T11:41:37.399Z,15.07
2019-04-29T11:44:42.719Z,14.70
2019-04-29T11:47:47.993Z,16.10
2019-04-29T11:51:04.586Z,15.30
2019-04-29T11:54:12.726Z,14.57
2019-04-29T11:57:40.134Z,14.60
2019-04-29T12:00:52.873Z,15.10
2019-04-29T12:03:59.113Z,14.37
2019-04-29T12:07:06.029Z,14.97
2019-04-29T12:10:11.877Z,13.60
2019-04-29T12:13:28.359Z,13.80
2019-04-29T12:16:38.219Z,14.90
2019-04-29T12:19:44.344Z,14.73
2019-04-29T12:22:49.687Z,12.53
2019-04-29T12:25:58.646Z,12.83
2019-04-29T12:29:01.950Z,12.97
2019-04-29T12:32:37.029Z,14.20
2019-04-29T12:35:58.568Z,13.57
2019-04-29T12:39:42.749Z,12.77
2019-04-29T12:42:55.720Z,13.87
2019-04-29T12:46:26.199Z,12.93
2019-04-29T12:49:31.644Z,13.23
2019-04-29T12:52:37.002Z,12.63
2019-04-29T12:55:47.300Z,14.37
2019-04-29T12:58:54.943Z,13.47
2019-04-29T13:02:19.961Z,12.80
2019-04-29T13:05:58.404Z,13.30
2019-04-29T13:09:17.625Z,13.67
2019-04-29T13:12:19.726Z,13.53
2019-04-29T13:15:43.802Z,13.33
2019-04-29T13:19:11.867Z,13.03
2019-04-29T13:22:15.602Z,13.30
2019-04-29T13:25:20.852Z,12.93
2019-04-29T13:28:30.351Z,13.47
2019-04-29T13:31:38.519Z,13.40
2019-04-29T13:34:43.020Z,12.50
2019-04-29T13:37:48.442Z,13.20
2019-04-29T13:41:11.977Z,13.97
2019-04-29T13:44:05.408Z,13.13
2019-04-29T13:47:36.939Z,14.40
2019-04-29T13:50:48.806Z,13.67
2019-04-29T13:53:55.305Z,13.07
2019-04-29T13:57:09.414Z,13.27
2019-04-29T14:00:28.414Z,13.43
2019-04-29T14:03:55.648Z,12.90
2019-04-29T14:07:01.054Z,13.00
2019-04-29T14:10:10.366Z,14.50
2019-04-29T14:13:17.678Z,14.30
2019-04-29T14:16:22.013Z,14.07
2019-04-29T14:19:41.091Z,14.13
2019-04-29T14:22:35.231Z,13.93
2019-04-29T14:25:40.568Z,14.60
2019-04-29T14:28:46.254Z,14.30
2019-04-29T14:31:59.129Z,14.23
2019-04-29T14:35:11.754Z,15.03
2019-04-29T14:38:16.564Z,14.70
2019-04-29T14:41:21.884Z,14.40
2019-04-29T14:44:44.059Z,14.13
2019-04-29T14:48:08.306Z,15.23
2019-04-29T14:51:13.841Z,14.97
2019-04-29T14:54:19.249Z,14.80
2019-04-29T14:57:24.569Z,15.00
2019-04-29T15:00:54.636Z,14.27
2019-04-29T15:04:17.405Z,14.43
2019-04-29T15:07:12.311Z,14.97
2019-04-29T15:10:19.576Z,14.93
2019-04-29T15:13:25.887Z,14.73
2019-04-29T15:16:36.623Z,14.83
2019-04-29T15:19:55.865Z,14.07
2019-04-29T15:23:01.357Z,15.17
2019-04-29T15:26:06.701Z,14.23
2019-04-29T15:29:12.134Z,14.87
2019-04-29T15:32:17.916Z,14.97
2019-04-29T15:35:25.621Z,14.50
2019-04-29T15:38:32.508Z,14.87
2019-04-29T15:41:40.368Z,16.20
2019-04-29T15:44:45.832Z,15.30
2019-04-29T15:47:51.317Z,14.83
2019-04-29T15:50:56.628Z,15.10
2019-04-29T15:54:01.932Z,13.00
2019-04-29T15:57:15.133Z,14.43
2019-04-29T16:00:21.882Z,14.30
2019-04-29T16:03:24.938Z,12.63
2019-04-29T16:07:01.448Z,11.27
2019-04-29T16:10:21.933Z,11.47
2019-04-29T16:13:27.922Z,10.47
2019-04-29T16:16:34.539Z,10.40
2019-04-29T16:19:52.934Z,9.80
2019-04-29T16:23:00.570Z,9.77
2019-04-29T16:26:03.655Z,9.30
2019-04-29T16:29:13.010Z,10.33
2019-04-29T16:32:24.982Z,10.37
2019-04-29T16:35:34.884Z,9.60
2019-04-29T16:38:40.671Z,8.70
2019-04-29T16:42:04.521Z,8.97
2019-04-29T16:45:14.415Z,9.43
2019-04-29T16:48:19.946Z,9.70
2019-04-29T16:51:25.225Z,9.20
2019-04-29T16:54:30.557Z,8.80
2019-04-29T16:57:35.926Z,9.67
2019-04-29T17:00:46.517Z,10.00
2019-04-29T17:03:48.572Z,9.20
2019-04-29T17:07:11.743Z,9.60
2019-04-29T17:10:22.669Z,9.83
2019-04-29T17:13:28.486Z,8.97
2019-04-29T17:16:33.981Z,10.20
2019-04-29T17:19:39.680Z,11.00
2019-04-29T17:22:46.827Z,10.80
2019-04-29T17:25:52.268Z,10.63
2019-04-29T17:29:26.721Z,10.07
2019-04-29T17:32:42.622Z,10.00
2019-04-29T17:35:42.895Z,10.47
2019-04-29T17:38:45.870Z,11.00
2019-04-29T17:41:52.824Z,11.37
2019-04-29T17:45:01.358Z,11.27
2019-04-29T17:48:18.351Z,11.27
2019-04-29T17:52:15.876Z,10.40
2019-04-29T17:57:25.169Z,10.17
2019-04-29T18:00:42.170Z,10.87
2019-04-29T18:04:11.788Z,11.00
2019-04-29T18:07:32.070Z,10.90
2019-04-29T18:10:45.694Z,10.23
2019-04-29T18:13:52.527Z,11.57
2019-04-29T18:16:59.316Z,11.20
2019-04-29T18:24:01.491Z,12.43
2019-04-29T18:27:10.185Z,12.70
2019-04-29T18:30:19.468Z,13.73
2019-04-29T18:33:26.000Z,13.73
2019-04-29T18:36:29.964Z,13.27
2019-04-29T18:39:35.754Z,13.97
2019-04-29T18:42:48.445Z,13.50
2019-04-29T18:45:56.257Z,13.20
2019-04-29T18:49:02.955Z,14.63
2019-04-29T18:52:07.846Z,14.37
2019-04-29T18:55:13.362Z,15.80
2019-04-29T18:58:18.667Z,16.40
2019-04-29T19:01:28.555Z,17.37
2019-04-29T19:04:53.456Z,16.50
2019-04-29T19:08:11.393Z,16.20
2019-04-29T19:11:09.231Z,18.30
2019-04-29T19:14:20.571Z,16.33
2019-04-29T19:17:30.901Z,16.93
2019-04-29T19:20:35.908Z,17.53
2019-04-29T19:23:41.567Z,17.00
2019-04-29T19:26:46.885Z,17.00
2019-04-29T19:29:52.230Z,17.20
2019-04-29T19:33:00.451Z,17.70
2019-04-29T19:36:13.386Z,18.23
2019-04-29T19:39:16.906Z,18.67
2019-04-29T19:42:31.029Z,19.73
2019-04-29T19:45:33.371Z,19.27
2019-04-29T19:48:38.985Z,21.27
2019-04-29T19:51:47.285Z,21.17
2019-04-29T19:54:51.564Z,22.23
2019-04-29T19:57:58.437Z,20.80
2019-04-29T20:01:11.775Z,21.47
2019-04-29T20:04:30.217Z,22.20
2019-04-29T20:07:41.209Z,20.67
2019-04-29T20:10:47.976Z,22.50
2019-04-29T20:14:01.970Z,22.07
2019-04-29T20:17:36.790Z,21.80
2019-04-29T20:21:08.665Z,20.80
2019-04-29T20:24:09.403Z,22.30
2019-04-29T20:27:16.934Z,23.63
2019-04-29T20:30:22.572Z,22.67
2019-04-29T20:33:28.266Z,24.17
2019-04-29T20:36:41.649Z,23.17
2019-04-29T20:39:40.808Z,24.90
2019-04-29T20:42:49.041Z,23.23
2019-04-29T20:45:53.252Z,25.00
2019-04-29T20:48:59.887Z,23.63
2019-04-29T20:52:22.025Z,23.63
2019-04-29T20:55:27.711Z,24.50
2019-04-29T20:58:33.399Z,22.97
2019-04-29T21:01:43.319Z,24.60
2019-04-29T21:04:49.392Z,24.13
2019-04-29T21:08:03.118Z,22.57
2019-04-29T21:11:05.767Z,25.80
2019-04-29T21:14:17.629Z,25.80
2019-04-29T21:17:29.420Z,24.13
2019-04-29T21:20:31.874Z,26.37
2019-04-29T21:23:38.782Z,22.73
2019-04-29T21:26:45.789Z,24.57
2019-04-29T21:29:54.101Z,25.20
2019-04-29T21:32:59.243Z,24.93
2019-04-29T21:36:33.014Z,24.20
2019-04-29T21:39:46.682Z,24.60
2019-04-29T21:42:55.472Z,24.53
2019-04-29T21:46:00.872Z,23.43
2019-04-29T21:49:11.507Z,25.50
2019-04-29T21:52:15.236Z,23.93
2019-04-29T21:55:24.813Z,26.03
2019-04-29T21:58:28.675Z,27.23
2019-04-29T22:01:37.484Z,24.37
2019-04-29T22:04:45.026Z,26.27
2019-04-29T22:07:50.720Z,24.67
2019-04-29T22:10:59.680Z,25.40
2019-04-29T22:14:05.596Z,23.50
2019-04-29T22:17:17.893Z,24.60
2019-04-29T22:20:23.179Z,24.87
2019-04-29T22:23:28.594Z,23.10
2019-04-29T22:26:35.061Z,25.53
2019-04-29T22:29:40.635Z,25.03
2019-04-29T22:32:47.134Z,25.50
2019-04-29T22:35:53.005Z,24.93
2019-04-29T22:38:58.264Z,25.20
2019-04-29T22:42:14.810Z,25.03
2019-04-29T22:45:23.131Z,25.43
2019-04-29T22:48:28.490Z,23.47
2019-04-29T22:51:35.449Z,25.27
2019-04-29T22:54:40.926Z,25.23
2019-04-29T22:57:46.928Z,24.07
2019-04-29T23:00:52.346Z,23.10
2019-04-29T23:03:57.625Z,23.90
2019-04-29T23:07:03.046Z,25.80
2019-04-29T23:10:08.586Z,25.40
2019-04-29T23:13:13.936Z,25.50
2019-04-29T23:16:20.778Z,24.40
2019-04-29T23:19:31.672Z,24.80
2019-04-29T23:22:43.503Z,25.43
2019-04-29T23:25:50.960Z,24.67
2019-04-29T23:28:59.446Z,24.33
2019-04-29T23:32:06.760Z,25.73
2019-04-29T23:35:10.605Z,24.03
2019-04-29T23:38:16.093Z,24.90
2019-04-29T23:41:26.099Z,22.70
2019-04-29T23:44:29.888Z,24.10
2019-04-29T23:47:35.724Z,22.60
2019-04-29T23:50:41.240Z,22.30
2019-04-29T23:53:46.675Z,22.63
2019-04-29T23:57:08.929Z,23.47
